MUGM/NBW METAR and TAF weather

Enter ICAO airport designator
Station Type Date Time Source
MUGM METAR 2023/02/05 22:51 UTC NOAA

MUGM 052251Z 13009KT 10SM SCT018 SCT030 27/23 A3005 RMK AO2 SLP176 T02670228 $


Station Type Date Time Source
MUGM Decoded METAR 2023/02/05 22:51 UTC NOAA

GUANTANAMO BAY, CUBA NAVAL, CU, Cuba (MUGM) 19-55N 075-12W 23M
Feb 05, 2023 - 05:51 PM EST / 2023.02.05 2251 UTC
Wind: from the SE (130 degrees) at 10 MPH (9 KT):0
Visibility: 10 mile(s):0
Sky conditions: partly cloudy
Temperature: 80.1 F (26.7 C)
Dew Point: 73.0 F (22.8 C)
Relative Humidity: 79%
Pressure (altimeter): 30.05 in. Hg (1017 hPa)
ob: MUGM 052251Z 13009KT 10SM SCT018 SCT030 27/23 A3005 RMK AO2 SLP176 T02670228
cycle: 23

Station Type Date Time Source
MUGM TAF 2023/02/05 23:05 UTC NOAA

TAF MUGM 0523/0623 11010KT 9999 SCT040 QNH2997INS
TEMPO 0523/0600 05010KT
BECMG 0600/0602 35010KT 9999 FEW030 SCT080 QNH2999INS
BECMG 0614/0616 10010KT 9999 FEW050 QNH2994INS T21/0610Z T30/0618Z FN00253

Example: see airport list